sensor_id;sensor_type;location;lat;lon;timestamp;P1;durP1;ratioP1;P2;durP2;ratioP2
37973;SDS011;23796;51.458;7.000;2022-07-29T00:01:42;5.45;;;1.40;;
37973;SDS011;23796;51.458;7.000;2022-07-29T00:04:10;2.90;;;1.00;;
37973;SDS011;23796;51.458;7.000;2022-07-29T00:06:36;4.70;;;1.10;;
37973;SDS011;23796;51.458;7.000;2022-07-29T00:09:02;2.83;;;0.85;;
37973;SDS011;23796;51.458;7.000;2022-07-29T00:11:30;3.47;;;0.93;;
37973;SDS011;23796;51.458;7.000;2022-07-29T00:13:55;3.58;;;1.00;;
37973;SDS011;23796;51.458;7.000;2022-07-29T00:16:21;4.10;;;1.25;;
37973;SDS011;23796;51.458;7.000;2022-07-29T00:18:47;5.70;;;1.42;;
37973;SDS011;23796;51.458;7.000;2022-07-29T00:21:13;3.97;;;1.38;;
37973;SDS011;23796;51.458;7.000;2022-07-29T00:23:39;3.92;;;0.93;;
37973;SDS011;23796;51.458;7.000;2022-07-29T00:26:05;7.53;;;1.33;;
37973;SDS011;23796;51.458;7.000;2022-07-29T00:28:33;5.40;;;1.45;;
37973;SDS011;23796;51.458;7.000;2022-07-29T00:30:59;7.07;;;1.40;;
37973;SDS011;23796;51.458;7.000;2022-07-29T00:33:25;4.03;;;1.10;;
37973;SDS011;23796;51.458;7.000;2022-07-29T00:35:51;5.40;;;1.52;;
37973;SDS011;23796;51.458;7.000;2022-07-29T00:38:17;2.63;;;0.82;;
37973;SDS011;23796;51.458;7.000;2022-07-29T00:40:46;4.30;;;1.10;;
37973;SDS011;23796;51.458;7.000;2022-07-29T00:43:14;4.78;;;0.90;;
37973;SDS011;23796;51.458;7.000;2022-07-29T00:45:40;6.85;;;1.10;;
37973;SDS011;23796;51.458;7.000;2022-07-29T00:48:07;3.90;;;0.85;;
37973;SDS011;23796;51.458;7.000;2022-07-29T00:50:33;7.10;;;1.55;;
37973;SDS011;23796;51.458;7.000;2022-07-29T00:53:00;6.45;;;1.10;;
37973;SDS011;23796;51.458;7.000;2022-07-29T00:55:27;5.18;;;1.23;;
37973;SDS011;23796;51.458;7.000;2022-07-29T00:57:54;4.03;;;1.10;;
37973;SDS011;23796;51.458;7.000;2022-07-29T01:00:22;4.43;;;1.20;;
37973;SDS011;23796;51.458;7.000;2022-07-29T01:02:51;4.50;;;1.08;;
37973;SDS011;23796;51.458;7.000;2022-07-29T01:05:20;3.67;;;1.05;;
37973;SDS011;23796;51.458;7.000;2022-07-29T01:07:48;4.35;;;1.02;;
37973;SDS011;23796;51.458;7.000;2022-07-29T01:10:18;4.57;;;1.27;;
37973;SDS011;23796;51.458;7.000;2022-07-29T01:12:46;6.22;;;1.25;;
37973;SDS011;23796;51.458;7.000;2022-07-29T01:15:14;6.53;;;1.13;;
37973;SDS011;23796;51.458;7.000;2022-07-29T01:31:00;7.97;;;1.30;;
37973;SDS011;23796;51.458;7.000;2022-07-29T01:33:32;7.15;;;1.73;;
37973;SDS011;23796;51.458;7.000;2022-07-29T01:36:22;4.93;;;1.00;;
37973;SDS011;23796;51.458;7.000;2022-07-29T01:44:37;4.22;;;1.05;;
37973;SDS011;23796;51.458;7.000;2022-07-29T01:47:15;4.20;;;1.08;;
37973;SDS011;23796;51.458;7.000;2022-07-29T01:49:46;5.40;;;1.25;;
37973;SDS011;23796;51.458;7.000;2022-07-29T01:52:19;3.83;;;1.10;;
37973;SDS011;23796;51.458;7.000;2022-07-29T01:55:09;5.77;;;1.40;;
37973;SDS011;23796;51.458;7.000;2022-07-29T01:57:38;5.05;;;1.10;;
37973;SDS011;23796;51.458;7.000;2022-07-29T02:00:08;3.95;;;1.30;;
37973;SDS011;23796;51.458;7.000;2022-07-29T02:02:37;6.25;;;1.23;;
37973;SDS011;23796;51.458;7.000;2022-07-29T02:05:12;5.38;;;1.48;;
37973;SDS011;23796;51.458;7.000;2022-07-29T02:07:40;6.60;;;1.40;;
37973;SDS011;23796;51.458;7.000;2022-07-29T02:10:08;5.18;;;1.00;;
37973;SDS011;23796;51.458;7.000;2022-07-29T02:12:35;5.55;;;1.27;;
37973;SDS011;23796;51.458;7.000;2022-07-29T02:15:05;5.80;;;1.10;;
37973;SDS011;23796;51.458;7.000;2022-07-29T02:20:26;5.63;;;2.13;;
37973;SDS011;23796;51.458;7.000;2022-07-29T02:22:53;3.95;;;1.10;;
37973;SDS011;23796;51.458;7.000;2022-07-29T02:25:20;7.78;;;1.30;;
37973;SDS011;23796;51.458;7.000;2022-07-29T02:27:49;3.20;;;1.10;;
37973;SDS011;23796;51.458;7.000;2022-07-29T02:30:16;4.82;;;1.10;;
37973;SDS011;23796;51.458;7.000;2022-07-29T02:32:43;5.80;;;1.38;;
37973;SDS011;23796;51.458;7.000;2022-07-29T02:35:12;4.78;;;1.30;;
37973;SDS011;23796;51.458;7.000;2022-07-29T02:37:40;5.03;;;1.05;;
37973;SDS011;23796;51.458;7.000;2022-07-29T02:40:08;3.17;;;1.10;;
37973;SDS011;23796;51.458;7.000;2022-07-29T02:42:39;5.00;;;1.42;;
37973;SDS011;23796;51.458;7.000;2022-07-29T02:45:07;8.73;;;1.38;;
37973;SDS011;23796;51.458;7.000;2022-07-29T02:50:21;8.63;;;1.60;;
37973;SDS011;23796;51.458;7.000;2022-07-29T02:52:58;5.70;;;1.45;;
37973;SDS011;23796;51.458;7.000;2022-07-29T02:55:37;4.07;;;1.30;;
37973;SDS011;23796;51.458;7.000;2022-07-29T02:58:20;4.28;;;1.30;;
37973;SDS011;23796;51.458;7.000;2022-07-29T03:01:04;4.55;;;1.30;;
37973;SDS011;23796;51.458;7.000;2022-07-29T03:03:37;6.78;;;1.40;;
37973;SDS011;23796;51.458;7.000;2022-07-29T03:06:04;6.63;;;1.40;;
37973;SDS011;23796;51.458;7.000;2022-07-29T03:08:33;4.05;;;1.30;;
37973;SDS011;23796;51.458;7.000;2022-07-29T03:11:02;8.77;;;2.33;;
37973;SDS011;23796;51.458;7.000;2022-07-29T03:13:31;6.25;;;1.20;;
37973;SDS011;23796;51.458;7.000;2022-07-29T03:15:57;4.50;;;1.23;;
37973;SDS011;23796;51.458;7.000;2022-07-29T03:18:23;5.30;;;1.42;;
37973;SDS011;23796;51.458;7.000;2022-07-29T03:20:50;4.70;;;1.20;;
37973;SDS011;23796;51.458;7.000;2022-07-29T03:23:19;6.75;;;1.20;;
37973;SDS011;23796;51.458;7.000;2022-07-29T03:25:47;6.15;;;1.33;;
37973;SDS011;23796;51.458;7.000;2022-07-29T03:28:14;5.20;;;1.45;;
37973;SDS011;23796;51.458;7.000;2022-07-29T03:30:39;6.90;;;1.48;;
37973;SDS011;23796;51.458;7.000;2022-07-29T03:33:08;4.70;;;1.30;;
37973;SDS011;23796;51.458;7.000;2022-07-29T03:35:33;7.53;;;1.52;;
37973;SDS011;23796;51.458;7.000;2022-07-29T03:37:59;6.10;;;1.40;;
37973;SDS011;23796;51.458;7.000;2022-07-29T03:40:49;5.10;;;1.45;;
37973;SDS011;23796;51.458;7.000;2022-07-29T03:43:20;3.80;;;1.00;;
37973;SDS011;23796;51.458;7.000;2022-07-29T03:45:51;7.20;;;1.50;;
37973;SDS011;23796;51.458;7.000;2022-07-29T03:48:19;8.18;;;1.60;;
37973;SDS011;23796;51.458;7.000;2022-07-29T03:50:49;3.13;;;1.10;;
37973;SDS011;23796;51.458;7.000;2022-07-29T03:53:18;7.50;;;1.27;;
37973;SDS011;23796;51.458;7.000;2022-07-29T03:55:44;6.97;;;1.40;;
37973;SDS011;23796;51.458;7.000;2022-07-29T03:58:13;4.07;;;1.20;;
37973;SDS011;23796;51.458;7.000;2022-07-29T04:00:43;5.50;;;1.23;;
37973;SDS011;23796;51.458;7.000;2022-07-29T04:03:13;6.72;;;1.40;;
37973;SDS011;23796;51.458;7.000;2022-07-29T04:05:41;5.63;;;1.38;;
37973;SDS011;23796;51.458;7.000;2022-07-29T04:08:07;4.22;;;1.00;;
37973;SDS011;23796;51.458;7.000;2022-07-29T04:10:32;4.07;;;1.10;;
37973;SDS011;23796;51.458;7.000;2022-07-29T04:12:58;4.80;;;1.15;;
37973;SDS011;23796;51.458;7.000;2022-07-29T04:15:25;5.35;;;1.30;;
37973;SDS011;23796;51.458;7.000;2022-07-29T04:17:50;5.53;;;1.52;;
37973;SDS011;23796;51.458;7.000;2022-07-29T04:20:18;3.90;;;1.30;;
37973;SDS011;23796;51.458;7.000;2022-07-29T04:22:44;4.82;;;1.13;;
37973;SDS011;23796;51.458;7.000;2022-07-29T04:25:14;4.28;;;1.27;;
37973;SDS011;23796;51.458;7.000;2022-07-29T04:27:42;4.07;;;1.05;;
37973;SDS011;23796;51.458;7.000;2022-07-29T04:30:25;5.63;;;1.42;;
37973;SDS011;23796;51.458;7.000;2022-07-29T04:32:50;5.63;;;1.15;;
37973;SDS011;23796;51.458;7.000;2022-07-29T04:35:17;5.50;;;1.33;;
37973;SDS011;23796;51.458;7.000;2022-07-29T04:37:43;4.32;;;1.02;;
37973;SDS011;23796;51.458;7.000;2022-07-29T04:40:09;4.95;;;1.00;;
37973;SDS011;23796;51.458;7.000;2022-07-29T04:42:35;6.70;;;1.52;;
37973;SDS011;23796;51.458;7.000;2022-07-29T04:45:00;5.38;;;1.17;;
37973;SDS011;23796;51.458;7.000;2022-07-29T04:47:26;5.38;;;1.58;;
37973;SDS011;23796;51.458;7.000;2022-07-29T04:49:51;4.50;;;1.23;;
37973;SDS011;23796;51.458;7.000;2022-07-29T04:52:17;4.50;;;1.48;;
37973;SDS011;23796;51.458;7.000;2022-07-29T04:54:43;8.77;;;1.85;;
37973;SDS011;23796;51.458;7.000;2022-07-29T04:57:08;3.65;;;0.98;;
37973;SDS011;23796;51.458;7.000;2022-07-29T04:59:34;6.43;;;1.92;;
37973;SDS011;23796;51.458;7.000;2022-07-29T05:01:59;4.55;;;1.33;;
37973;SDS011;23796;51.458;7.000;2022-07-29T05:04:25;6.93;;;1.75;;
37973;SDS011;23796;51.458;7.000;2022-07-29T05:06:51;6.13;;;1.80;;
37973;SDS011;23796;51.458;7.000;2022-07-29T05:09:16;6.45;;;2.47;;
37973;SDS011;23796;51.458;7.000;2022-07-29T05:11:42;3.63;;;1.55;;
37973;SDS011;23796;51.458;7.000;2022-07-29T05:14:08;4.63;;;1.58;;
37973;SDS011;23796;51.458;7.000;2022-07-29T05:16:33;5.10;;;2.00;;
37973;SDS011;23796;51.458;7.000;2022-07-29T05:18:59;4.70;;;1.75;;
37973;SDS011;23796;51.458;7.000;2022-07-29T05:21:24;2.90;;;1.10;;
37973;SDS011;23796;51.458;7.000;2022-07-29T05:23:50;8.30;;;1.52;;
37973;SDS011;23796;51.458;7.000;2022-07-29T05:26:20;3.00;;;1.27;;
37973;SDS011;23796;51.458;7.000;2022-07-29T05:28:50;3.13;;;1.23;;
37973;SDS011;23796;51.458;7.000;2022-07-29T05:31:16;2.92;;;1.17;;
37973;SDS011;23796;51.458;7.000;2022-07-29T05:33:43;4.78;;;1.23;;
37973;SDS011;23796;51.458;7.000;2022-07-29T05:36:09;5.38;;;1.80;;
37973;SDS011;23796;51.458;7.000;2022-07-29T05:38:35;3.53;;;1.67;;
37973;SDS011;23796;51.458;7.000;2022-07-29T05:41:01;3.58;;;1.10;;
37973;SDS011;23796;51.458;7.000;2022-07-29T05:43:27;6.18;;;1.55;;
37973;SDS011;23796;51.458;7.000;2022-07-29T05:45:53;4.72;;;1.10;;
37973;SDS011;23796;51.458;7.000;2022-07-29T05:48:19;4.47;;;1.55;;
37973;SDS011;23796;51.458;7.000;2022-07-29T05:50:47;5.88;;;1.50;;
37973;SDS011;23796;51.458;7.000;2022-07-29T05:53:15;5.18;;;1.20;;
37973;SDS011;23796;51.458;7.000;2022-07-29T05:55:41;7.22;;;1.58;;
37973;SDS011;23796;51.458;7.000;2022-07-29T05:58:07;5.53;;;1.35;;
37973;SDS011;23796;51.458;7.000;2022-07-29T06:00:32;7.00;;;1.77;;
37973;SDS011;23796;51.458;7.000;2022-07-29T06:02:59;7.07;;;1.40;;
37973;SDS011;23796;51.458;7.000;2022-07-29T06:05:24;4.95;;;1.40;;
37973;SDS011;23796;51.458;7.000;2022-07-29T06:07:50;6.25;;;2.53;;
37973;SDS011;23796;51.458;7.000;2022-07-29T06:10:18;4.53;;;1.52;;
37973;SDS011;23796;51.458;7.000;2022-07-29T06:12:44;7.10;;;1.58;;
37973;SDS011;23796;51.458;7.000;2022-07-29T06:15:09;5.53;;;2.15;;
37973;SDS011;23796;51.458;7.000;2022-07-29T06:17:35;5.78;;;1.98;;
37973;SDS011;23796;51.458;7.000;2022-07-29T06:20:06;6.32;;;1.63;;
37973;SDS011;23796;51.458;7.000;2022-07-29T06:22:32;6.53;;;2.00;;
37973;SDS011;23796;51.458;7.000;2022-07-29T06:24:58;7.15;;;2.22;;
37973;SDS011;23796;51.458;7.000;2022-07-29T06:27:23;4.65;;;1.60;;
37973;SDS011;23796;51.458;7.000;2022-07-29T06:29:49;9.20;;;2.10;;
37973;SDS011;23796;51.458;7.000;2022-07-29T06:32:14;4.78;;;2.15;;
37973;SDS011;23796;51.458;7.000;2022-07-29T06:34:53;5.45;;;1.70;;
37973;SDS011;23796;51.458;7.000;2022-07-29T06:37:21;6.35;;;2.53;;
37973;SDS011;23796;51.458;7.000;2022-07-29T06:39:49;6.78;;;2.03;;
37973;SDS011;23796;51.458;7.000;2022-07-29T06:42:37;7.13;;;1.77;;
37973;SDS011;23796;51.458;7.000;2022-07-29T06:45:07;6.10;;;2.38;;
37973;SDS011;23796;51.458;7.000;2022-07-29T06:47:33;8.30;;;1.88;;
37973;SDS011;23796;51.458;7.000;2022-07-29T06:49:59;6.68;;;1.92;;
37973;SDS011;23796;51.458;7.000;2022-07-29T06:52:24;6.72;;;1.70;;
37973;SDS011;23796;51.458;7.000;2022-07-29T06:54:50;4.68;;;1.20;;
37973;SDS011;23796;51.458;7.000;2022-07-29T06:57:16;6.47;;;2.00;;
37973;SDS011;23796;51.458;7.000;2022-07-29T06:59:41;6.07;;;2.22;;
37973;SDS011;23796;51.458;7.000;2022-07-29T07:02:07;6.45;;;2.13;;
37973;SDS011;23796;51.458;7.000;2022-07-29T07:04:32;6.47;;;2.38;;
37973;SDS011;23796;51.458;7.000;2022-07-29T07:06:58;6.90;;;2.13;;
37973;SDS011;23796;51.458;7.000;2022-07-29T07:09:24;6.15;;;1.73;;
37973;SDS011;23796;51.458;7.000;2022-07-29T07:11:50;8.48;;;1.65;;
37973;SDS011;23796;51.458;7.000;2022-07-29T07:14:20;7.63;;;1.98;;
37973;SDS011;23796;51.458;7.000;2022-07-29T07:16:46;5.10;;;1.75;;
37973;SDS011;23796;51.458;7.000;2022-07-29T07:19:14;6.00;;;1.80;;
37973;SDS011;23796;51.458;7.000;2022-07-29T07:21:40;6.22;;;1.67;;
37973;SDS011;23796;51.458;7.000;2022-07-29T07:24:05;6.25;;;1.67;;
37973;SDS011;23796;51.458;7.000;2022-07-29T07:26:31;5.05;;;1.63;;
37973;SDS011;23796;51.458;7.000;2022-07-29T07:28:57;6.78;;;2.80;;
37973;SDS011;23796;51.458;7.000;2022-07-29T07:31:22;7.65;;;2.17;;
37973;SDS011;23796;51.458;7.000;2022-07-29T07:33:48;6.18;;;1.88;;
37973;SDS011;23796;51.458;7.000;2022-07-29T07:36:14;7.18;;;2.10;;
37973;SDS011;23796;51.458;7.000;2022-07-29T07:38:39;6.60;;;2.25;;
37973;SDS011;23796;51.458;7.000;2022-07-29T07:41:07;5.15;;;1.83;;
37973;SDS011;23796;51.458;7.000;2022-07-29T07:43:37;7.35;;;1.90;;
37973;SDS011;23796;51.458;7.000;2022-07-29T07:46:03;10.93;;;2.13;;
37973;SDS011;23796;51.458;7.000;2022-07-29T07:48:29;5.50;;;1.73;;
37973;SDS011;23796;51.458;7.000;2022-07-29T07:50:57;7.50;;;2.30;;
37973;SDS011;23796;51.458;7.000;2022-07-29T07:53:22;8.55;;;2.10;;
37973;SDS011;23796;51.458;7.000;2022-07-29T07:55:48;8.88;;;1.95;;
37973;SDS011;23796;51.458;7.000;2022-07-29T07:58:14;4.28;;;1.38;;
37973;SDS011;23796;51.458;7.000;2022-07-29T08:00:40;5.18;;;1.88;;
37973;SDS011;23796;51.458;7.000;2022-07-29T08:03:08;8.32;;;2.03;;
37973;SDS011;23796;51.458;7.000;2022-07-29T08:05:38;5.43;;;1.90;;
37973;SDS011;23796;51.458;7.000;2022-07-29T08:08:06;5.60;;;1.75;;
37973;SDS011;23796;51.458;7.000;2022-07-29T08:10:32;10.45;;;2.58;;
37973;SDS011;23796;51.458;7.000;2022-07-29T08:13:19;7.82;;;2.13;;
37973;SDS011;23796;51.458;7.000;2022-07-29T08:15:46;9.70;;;2.15;;
37973;SDS011;23796;51.458;7.000;2022-07-29T08:18:12;7.82;;;2.70;;
37973;SDS011;23796;51.458;7.000;2022-07-29T08:20:38;5.28;;;1.83;;
37973;SDS011;23796;51.458;7.000;2022-07-29T08:23:05;7.88;;;2.58;;
37973;SDS011;23796;51.458;7.000;2022-07-29T08:25:33;11.75;;;2.45;;
37973;SDS011;23796;51.458;7.000;2022-07-29T08:28:03;9.60;;;2.30;;
37973;SDS011;23796;51.458;7.000;2022-07-29T08:30:29;6.20;;;2.45;;
37973;SDS011;23796;51.458;7.000;2022-07-29T08:32:55;7.28;;;2.65;;
37973;SDS011;23796;51.458;7.000;2022-07-29T08:35:22;6.10;;;1.98;;
37973;SDS011;23796;51.458;7.000;2022-07-29T08:37:51;6.68;;;1.98;;
37973;SDS011;23796;51.458;7.000;2022-07-29T08:40:17;8.50;;;3.13;;
37973;SDS011;23796;51.458;7.000;2022-07-29T08:42:48;7.32;;;2.45;;
37973;SDS011;23796;51.458;7.000;2022-07-29T08:45:17;8.18;;;2.67;;
37973;SDS011;23796;51.458;7.000;2022-07-29T08:47:44;5.63;;;2.25;;
37973;SDS011;23796;51.458;7.000;2022-07-29T08:50:10;13.38;;;2.50;;
37973;SDS011;23796;51.458;7.000;2022-07-29T08:52:37;6.88;;;2.67;;
37973;SDS011;23796;51.458;7.000;2022-07-29T08:55:05;8.15;;;2.70;;
37973;SDS011;23796;51.458;7.000;2022-07-29T08:57:33;8.10;;;2.78;;
37973;SDS011;23796;51.458;7.000;2022-07-29T09:00:03;13.57;;;2.92;;
37973;SDS011;23796;51.458;7.000;2022-07-29T09:02:33;9.57;;;2.38;;
37973;SDS011;23796;51.458;7.000;2022-07-29T09:05:02;10.95;;;3.65;;
37973;SDS011;23796;51.458;7.000;2022-07-29T09:07:31;7.30;;;2.63;;
37973;SDS011;23796;51.458;7.000;2022-07-29T09:10:00;5.57;;;2.30;;
37973;SDS011;23796;51.458;7.000;2022-07-29T09:12:26;6.13;;;2.13;;
37973;SDS011;23796;51.458;7.000;2022-07-29T09:14:53;9.93;;;2.95;;
37973;SDS011;23796;51.458;7.000;2022-07-29T09:17:32;7.75;;;1.98;;
37973;SDS011;23796;51.458;7.000;2022-07-29T09:20:08;9.50;;;2.60;;
37973;SDS011;23796;51.458;7.000;2022-07-29T09:22:37;7.53;;;2.42;;
37973;SDS011;23796;51.458;7.000;2022-07-29T09:25:03;6.00;;;2.53;;
37973;SDS011;23796;51.458;7.000;2022-07-29T09:27:32;7.47;;;3.20;;
37973;SDS011;23796;51.458;7.000;2022-07-29T09:32:54;6.60;;;2.70;;
37973;SDS011;23796;51.458;7.000;2022-07-29T09:35:26;6.57;;;2.40;;
37973;SDS011;23796;51.458;7.000;2022-07-29T09:37:55;9.40;;;3.13;;
37973;SDS011;23796;51.458;7.000;2022-07-29T09:40:27;6.82;;;2.83;;
37973;SDS011;23796;51.458;7.000;2022-07-29T09:42:55;8.85;;;2.13;;
37973;SDS011;23796;51.458;7.000;2022-07-29T09:45:32;6.18;;;2.53;;
37973;SDS011;23796;51.458;7.000;2022-07-29T09:47:59;4.53;;;2.35;;
37973;SDS011;23796;51.458;7.000;2022-07-29T09:50:41;6.50;;;2.65;;
37973;SDS011;23796;51.458;7.000;2022-07-29T09:53:07;8.45;;;3.00;;
37973;SDS011;23796;51.458;7.000;2022-07-29T09:55:50;9.15;;;3.33;;
37973;SDS011;23796;51.458;7.000;2022-07-29T09:58:17;7.75;;;2.65;;
37973;SDS011;23796;51.458;7.000;2022-07-29T10:00:46;7.35;;;4.03;;
37973;SDS011;23796;51.458;7.000;2022-07-29T10:03:14;9.10;;;3.78;;
37973;SDS011;23796;51.458;7.000;2022-07-29T10:05:41;10.43;;;4.30;;
37973;SDS011;23796;51.458;7.000;2022-07-29T10:08:07;5.40;;;2.78;;
37973;SDS011;23796;51.458;7.000;2022-07-29T10:10:36;8.82;;;3.10;;
37973;SDS011;23796;51.458;7.000;2022-07-29T10:15:32;9.63;;;2.80;;
37973;SDS011;23796;51.458;7.000;2022-07-29T10:18:03;5.28;;;2.25;;
37973;SDS011;23796;51.458;7.000;2022-07-29T10:20:33;7.30;;;3.00;;
37973;SDS011;23796;51.458;7.000;2022-07-29T10:22:59;6.55;;;3.40;;
37973;SDS011;23796;51.458;7.000;2022-07-29T10:25:25;6.50;;;3.22;;
37973;SDS011;23796;51.458;7.000;2022-07-29T10:27:53;7.15;;;3.58;;
37973;SDS011;23796;51.458;7.000;2022-07-29T10:30:20;9.25;;;2.70;;
37973;SDS011;23796;51.458;7.000;2022-07-29T10:43:59;7.00;;;2.80;;
37973;SDS011;23796;51.458;7.000;2022-07-29T10:46:36;6.75;;;2.47;;
37973;SDS011;23796;51.458;7.000;2022-07-29T10:51:54;6.53;;;2.70;;
37973;SDS011;23796;51.458;7.000;2022-07-29T11:07:25;9.93;;;2.83;;
37973;SDS011;23796;51.458;7.000;2022-07-29T11:15:05;7.43;;;2.80;;
37973;SDS011;23796;51.458;7.000;2022-07-29T11:23:17;9.13;;;3.67;;
37973;SDS011;23796;51.458;7.000;2022-07-29T11:31:38;5.47;;;2.30;;
37973;SDS011;23796;51.458;7.000;2022-07-29T11:39:41;5.25;;;2.53;;
37973;SDS011;23796;51.458;7.000;2022-07-29T11:44:59;8.45;;;3.00;;
37973;SDS011;23796;51.458;7.000;2022-07-29T11:47:27;5.43;;;2.38;;
37973;SDS011;23796;51.458;7.000;2022-07-29T11:49:55;5.97;;;2.83;;
37973;SDS011;23796;51.458;7.000;2022-07-29T11:52:31;5.93;;;2.42;;
37973;SDS011;23796;51.458;7.000;2022-07-29T11:55:03;6.47;;;2.53;;
37973;SDS011;23796;51.458;7.000;2022-07-29T11:57:32;5.97;;;2.30;;
37973;SDS011;23796;51.458;7.000;2022-07-29T11:59:59;5.95;;;2.40;;
37973;SDS011;23796;51.458;7.000;2022-07-29T12:02:25;5.82;;;2.67;;
37973;SDS011;23796;51.458;7.000;2022-07-29T12:05:07;6.47;;;2.20;;
37973;SDS011;23796;51.458;7.000;2022-07-29T12:07:36;6.32;;;2.85;;
37973;SDS011;23796;51.458;7.000;2022-07-29T12:10:05;5.78;;;2.40;;
37973;SDS011;23796;51.458;7.000;2022-07-29T12:12:33;6.57;;;2.28;;
37973;SDS011;23796;51.458;7.000;2022-07-29T12:15:20;8.18;;;2.28;;
37973;SDS011;23796;51.458;7.000;2022-07-29T12:17:46;4.82;;;1.98;;
37973;SDS011;23796;51.458;7.000;2022-07-29T12:20:13;6.63;;;2.15;;
37973;SDS011;23796;51.458;7.000;2022-07-29T12:22:46;9.73;;;2.28;;
37973;SDS011;23796;51.458;7.000;2022-07-29T12:25:14;6.10;;;2.20;;
37973;SDS011;23796;51.458;7.000;2022-07-29T12:27:42;6.40;;;2.53;;
37973;SDS011;23796;51.458;7.000;2022-07-29T12:30:12;5.72;;;2.00;;
37973;SDS011;23796;51.458;7.000;2022-07-29T12:35:19;8.55;;;2.00;;
37973;SDS011;23796;51.458;7.000;2022-07-29T12:37:46;6.22;;;2.35;;
37973;SDS011;23796;51.458;7.000;2022-07-29T12:40:15;8.15;;;2.22;;
37973;SDS011;23796;51.458;7.000;2022-07-29T12:43:27;7.03;;;2.33;;
37973;SDS011;23796;51.458;7.000;2022-07-29T12:48:00;16.98;;;3.25;;
37973;SDS011;23796;51.458;7.000;2022-07-29T12:50:26;6.63;;;2.88;;
37973;SDS011;23796;51.458;7.000;2022-07-29T12:52:51;7.82;;;2.30;;
37973;SDS011;23796;51.458;7.000;2022-07-29T12:58:14;5.88;;;1.90;;
37973;SDS011;23796;51.458;7.000;2022-07-29T13:06:29;5.65;;;2.10;;
37973;SDS011;23796;51.458;7.000;2022-07-29T13:11:32;9.48;;;2.78;;
37973;SDS011;23796;51.458;7.000;2022-07-29T13:14:07;7.47;;;1.90;;
37973;SDS011;23796;51.458;7.000;2022-07-29T13:16:34;5.13;;;2.20;;
37973;SDS011;23796;51.458;7.000;2022-07-29T13:19:03;5.93;;;2.28;;
37973;SDS011;23796;51.458;7.000;2022-07-29T13:21:31;5.28;;;2.30;;
37973;SDS011;23796;51.458;7.000;2022-07-29T13:24:02;8.35;;;2.45;;
37973;SDS011;23796;51.458;7.000;2022-07-29T13:26:28;6.75;;;2.40;;
37973;SDS011;23796;51.458;7.000;2022-07-29T13:28:54;9.32;;;2.45;;
37973;SDS011;23796;51.458;7.000;2022-07-29T13:31:20;7.53;;;2.47;;
37973;SDS011;23796;51.458;7.000;2022-07-29T13:33:47;9.93;;;2.78;;
37973;SDS011;23796;51.458;7.000;2022-07-29T13:36:12;8.88;;;2.75;;
37973;SDS011;23796;51.458;7.000;2022-07-29T13:38:41;13.40;;;3.00;;
37973;SDS011;23796;51.458;7.000;2022-07-29T13:41:09;5.78;;;2.72;;
37973;SDS011;23796;51.458;7.000;2022-07-29T13:43:35;5.93;;;2.42;;
37973;SDS011;23796;51.458;7.000;2022-07-29T13:46:00;4.65;;;2.13;;
37973;SDS011;23796;51.458;7.000;2022-07-29T13:48:26;5.53;;;2.65;;
37973;SDS011;23796;51.458;7.000;2022-07-29T13:50:52;7.65;;;2.80;;
37973;SDS011;23796;51.458;7.000;2022-07-29T13:53:17;10.23;;;3.05;;
37973;SDS011;23796;51.458;7.000;2022-07-29T13:55:43;6.13;;;2.83;;
37973;SDS011;23796;51.458;7.000;2022-07-29T13:58:09;5.63;;;2.15;;
37973;SDS011;23796;51.458;7.000;2022-07-29T14:00:37;7.15;;;3.13;;
37973;SDS011;23796;51.458;7.000;2022-07-29T14:03:02;5.20;;;2.83;;
37973;SDS011;23796;51.458;7.000;2022-07-29T14:05:28;6.20;;;2.42;;
37973;SDS011;23796;51.458;7.000;2022-07-29T14:07:54;5.75;;;2.50;;
37973;SDS011;23796;51.458;7.000;2022-07-29T14:10:19;5.93;;;2.50;;
37973;SDS011;23796;51.458;7.000;2022-07-29T14:12:45;5.93;;;2.63;;
37973;SDS011;23796;51.458;7.000;2022-07-29T14:15:10;9.30;;;2.72;;
37973;SDS011;23796;51.458;7.000;2022-07-29T14:17:36;6.25;;;2.97;;
37973;SDS011;23796;51.458;7.000;2022-07-29T14:20:02;5.22;;;2.50;;
37973;SDS011;23796;51.458;7.000;2022-07-29T14:22:28;6.68;;;2.65;;
37973;SDS011;23796;51.458;7.000;2022-07-29T14:24:58;5.65;;;2.58;;
37973;SDS011;23796;51.458;7.000;2022-07-29T14:27:23;6.57;;;2.95;;
37973;SDS011;23796;51.458;7.000;2022-07-29T14:29:49;6.97;;;2.65;;
37973;SDS011;23796;51.458;7.000;2022-07-29T14:32:15;5.95;;;2.70;;
37973;SDS011;23796;51.458;7.000;2022-07-29T14:34:40;7.72;;;3.08;;
37973;SDS011;23796;51.458;7.000;2022-07-29T14:37:08;6.03;;;2.63;;
37973;SDS011;23796;51.458;7.000;2022-07-29T14:39:34;6.28;;;2.55;;
37973;SDS011;23796;51.458;7.000;2022-07-29T14:42:01;5.38;;;2.75;;
37973;SDS011;23796;51.458;7.000;2022-07-29T14:44:26;6.30;;;2.78;;
37973;SDS011;23796;51.458;7.000;2022-07-29T14:46:58;6.10;;;3.00;;
37973;SDS011;23796;51.458;7.000;2022-07-29T14:49:25;7.10;;;3.22;;
37973;SDS011;23796;51.458;7.000;2022-07-29T14:51:56;6.03;;;2.92;;
37973;SDS011;23796;51.458;7.000;2022-07-29T14:54:23;5.72;;;3.17;;
37973;SDS011;23796;51.458;7.000;2022-07-29T14:56:49;4.97;;;2.70;;
37973;SDS011;23796;51.458;7.000;2022-07-29T14:59:21;8.10;;;3.80;;
37973;SDS011;23796;51.458;7.000;2022-07-29T15:01:49;8.48;;;3.42;;
37973;SDS011;23796;51.458;7.000;2022-07-29T15:04:15;5.50;;;2.88;;
37973;SDS011;23796;51.458;7.000;2022-07-29T15:06:41;8.27;;;3.00;;
37973;SDS011;23796;51.458;7.000;2022-07-29T15:09:07;6.50;;;3.20;;
37973;SDS011;23796;51.458;7.000;2022-07-29T15:11:33;6.57;;;3.45;;
37973;SDS011;23796;51.458;7.000;2022-07-29T15:13:59;8.07;;;3.35;;
37973;SDS011;23796;51.458;7.000;2022-07-29T15:16:24;7.03;;;3.10;;
37973;SDS011;23796;51.458;7.000;2022-07-29T15:18:52;6.47;;;3.08;;
37973;SDS011;23796;51.458;7.000;2022-07-29T15:21:18;7.95;;;3.40;;
37973;SDS011;23796;51.458;7.000;2022-07-29T15:23:46;5.80;;;3.03;;
37973;SDS011;23796;51.458;7.000;2022-07-29T15:26:11;9.25;;;3.58;;
37973;SDS011;23796;51.458;7.000;2022-07-29T15:28:37;8.00;;;3.75;;
37973;SDS011;23796;51.458;7.000;2022-07-29T15:31:05;6.47;;;3.92;;
37973;SDS011;23796;51.458;7.000;2022-07-29T15:33:30;6.18;;;3.38;;
37973;SDS011;23796;51.458;7.000;2022-07-29T15:35:56;6.32;;;3.35;;
37973;SDS011;23796;51.458;7.000;2022-07-29T15:38:24;5.93;;;3.03;;
37973;SDS011;23796;51.458;7.000;2022-07-29T15:40:50;8.68;;;3.70;;
37973;SDS011;23796;51.458;7.000;2022-07-29T15:43:18;7.63;;;3.47;;
37973;SDS011;23796;51.458;7.000;2022-07-29T15:45:43;7.72;;;3.15;;
37973;SDS011;23796;51.458;7.000;2022-07-29T15:48:29;6.75;;;2.90;;
37973;SDS011;23796;51.458;7.000;2022-07-29T15:50:56;7.05;;;2.78;;
37973;SDS011;23796;51.458;7.000;2022-07-29T15:53:25;8.05;;;3.15;;
37973;SDS011;23796;51.458;7.000;2022-07-29T15:55:51;6.55;;;3.90;;
37973;SDS011;23796;51.458;7.000;2022-07-29T15:58:16;10.13;;;3.80;;
37973;SDS011;23796;51.458;7.000;2022-07-29T16:00:42;6.60;;;3.22;;
37973;SDS011;23796;51.458;7.000;2022-07-29T16:03:08;5.88;;;3.00;;
37973;SDS011;23796;51.458;7.000;2022-07-29T16:05:34;11.52;;;3.42;;
37973;SDS011;23796;51.458;7.000;2022-07-29T16:08:01;8.38;;;2.80;;
37973;SDS011;23796;51.458;7.000;2022-07-29T16:10:27;9.00;;;3.10;;
37973;SDS011;23796;51.458;7.000;2022-07-29T16:12:55;4.88;;;2.47;;
37973;SDS011;23796;51.458;7.000;2022-07-29T16:15:20;9.50;;;2.97;;
37973;SDS011;23796;51.458;7.000;2022-07-29T16:17:46;5.28;;;2.75;;
37973;SDS011;23796;51.458;7.000;2022-07-29T16:20:14;5.68;;;2.70;;
37973;SDS011;23796;51.458;7.000;2022-07-29T16:22:39;7.45;;;3.22;;
37973;SDS011;23796;51.458;7.000;2022-07-29T16:25:07;7.57;;;2.42;;
37973;SDS011;23796;51.458;7.000;2022-07-29T16:27:35;5.65;;;2.22;;
37973;SDS011;23796;51.458;7.000;2022-07-29T16:30:04;6.75;;;2.85;;
37973;SDS011;23796;51.458;7.000;2022-07-29T16:32:32;6.30;;;2.35;;